Terminal Aerodrome Forecast
Issued by NWS

Home | Current Version | Previous Version | Text Only | Print | Product List | Glossary On
Versions: 1 2 3 4 5 6 7 8 9 10 11 12 13 14 15 16 17 18
000
FTUS44 KHGX 292326
TAFCXO
TAF
KCXO 292326Z 3000/3024 07003KT P6SM VCSH SCT050 BKN250
      TEMPO 3000/3001 VRB20KT 3SM TSRA BKN040CB
     FM300200 VRB03KT P6SM SCT120
      TEMPO 3011/3015 BKN018 OVC200
     FM301500 05004KT P6SM SCT025 BKN250
     FM301800 07005KT P6SM SCT040 BKN250 PROB30 3019/3023 TSRA
      BKN035CB=

USA.gov is the U.S. government's official web portal to all federal, state and local government web resources and services.